Time;durP1;ratioP1;P1;durP2;ratioP2;P2;SDS_P1;SDS_P2;PMS_P1;PMS_P2;Temp;Humidity;BMP_temperature;BMP_pressure;BME280_temperature;BME280_humidity;BME280_pressure;Samples;Min_cycle;Max_cycle;Signal;HPM_P1;HPM_P2
2022/11/23 00:00:16;;;;;;;;;;;;;;;11.72;92.74;98657.19;5085702;28;19912;-70
2022/11/23 00:02:42;;;;;;;;;;;;;;;11.79;92.44;98671.34;5083171;28;19921;-70
2022/11/23 00:05:07;;;;;;;;;;;;;;;11.75;92.40;98662.91;5083819;28;19932;-71
2022/11/23 00:07:33;;;;;;;;;;;;;;;11.86;92.64;98653.63;5082236;28;20165;-70
2022/11/23 00:09:58;;;;;;;;;;;;;;;11.90;91.72;98662.00;5082398;28;19912;-71
2022/11/23 00:12:23;;;;;;;;;;;;;;;12.11;91.33;98668.03;5087449;28;20133;-70
2022/11/23 00:14:48;;;;;;;;;;;;;;;12.17;91.21;98676.22;5083080;28;19944;-71
2022/11/23 00:17:14;;;;;;;;;;;;;;;12.32;90.67;98676.88;5087786;28;19989;-71
2022/11/23 00:19:39;;;;;;;;;;;;;;;12.10;91.84;98676.19;5083801;28;19924;-70
2022/11/23 00:22:04;;;;;;;;;;;;;;;12.34;91.10;98672.19;5075084;28;19912;-70
2022/11/23 00:24:29;;;;;;;;;;;;;;;12.44;89.40;98662.81;5084560;28;19916;-70
2022/11/23 00:26:55;;;;;;;;;;;;;;;12.54;89.35;98654.50;5085652;28;19912;-70
2022/11/23 00:29:20;;;;;;;;;;;;;;;12.75;88.16;98646.38;5083796;28;20252;-71
2022/11/23 00:31:45;;;;;;;;;;;;;;;12.96;86.74;98656.00;5084005;28;20020;-70
2022/11/23 00:34:10;;;;;;;;;;;;;;;12.91;87.25;98652.31;5084355;28;19948;-71
2022/11/23 00:36:36;;;;;;;;;;;;;;;12.86;86.58;98620.22;5082693;28;20109;-71
2022/11/23 00:39:01;;;;;;;;;;;;;;;13.14;86.44;98651.91;5092657;28;19916;-70
2022/11/23 00:41:27;;;;;;;;;;;;;;;13.33;85.48;98637.81;5087209;28;19920;-70
2022/11/23 00:43:52;;;;;;;;;;;;;;;13.37;85.20;98660.31;5086451;28;19927;-70
2022/11/23 00:46:19;;;;;;;;;;;;;;;13.34;85.69;98664.19;5086840;28;19939;-70
2022/11/23 00:48:45;;;;;;;;;;;;;;;13.37;85.55;98657.63;5087026;28;20293;-71
2022/11/23 00:51:12;;;;;;;;;;;;;;;13.41;84.87;98643.72;5087854;28;19970;-70
2022/11/23 00:53:37;;;;;;;;;;;;;;;13.42;84.64;98645.38;5087390;28;19967;-70
2022/11/23 00:56:03;;;;;;;;;;;;;;;13.41;85.21;98638.41;5086190;28;19919;-71
2022/11/23 00:58:28;;;;;;;;;;;;;;;13.52;84.83;98636.97;5085548;28;19917;-71
2022/11/23 01:01:01;;;;;;;;;;;;;;;13.34;87.18;98632.28;5086029;28;19912;-70
2022/11/23 01:03:27;;;;;;;;;;;;;;;13.50;86.02;98617.72;5086308;28;20206;-71
2022/11/23 01:05:52;;;;;;;;;;;;;;;13.55;86.83;98628.59;5089004;28;19923;-71
2022/11/23 01:08:17;;;;;;;;;;;;;;;13.45;88.19;98632.69;5067534;28;19969;-71
2022/11/23 01:10:43;;;;;;;;;;;;;;;13.35;89.73;98633.91;5086824;28;19912;-71
2022/11/23 01:13:08;;;;;;;;;;;;;;;13.20;91.07;98629.84;5086794;28;19916;-71
2022/11/23 01:15:33;;;;;;;;;;;;;;;13.31;91.31;98634.53;5085991;28;19951;-70
2022/11/23 01:17:58;;;;;;;;;;;;;;;13.49;89.25;98615.28;5087892;28;20087;-71
2022/11/23 01:20:24;;;;;;;;;;;;;;;13.52;88.70;98605.03;5085554;28;20017;-70
2022/11/23 01:22:50;;;;;;;;;;;;;;;13.57;87.36;98607.09;5085238;28;19939;-71
2022/11/23 01:25:15;;;;;;;;;;;;;;;13.57;87.42;98607.94;5087885;28;20165;-70
2022/11/23 01:27:41;;;;;;;;;;;;;;;13.19;88.50;98605.09;5086152;28;19927;-71
2022/11/23 01:30:06;;;;;;;;;;;;;;;12.76;90.76;98589.56;5086653;28;19920;-71
2022/11/23 01:32:31;;;;;;;;;;;;;;;12.56;93.40;98579.94;5087505;28;19985;-70
2022/11/23 01:34:57;;;;;;;;;;;;;;;12.23;95.83;98551.50;5087904;28;20206;-71
2022/11/23 01:37:22;;;;;;;;;;;;;;;12.00;98.87;98529.81;5086661;28;19931;-70
2022/11/23 01:39:47;;;;;;;;;;;;;;;11.91;99.74;98558.34;5085677;28;20512;-70
2022/11/23 01:42:12;;;;;;;;;;;;;;;11.76;100.00;98553.19;5088826;28;19950;-70
2022/11/23 01:44:40;;;;;;;;;;;;;;;11.72;100.00;98536.03;5086526;28;20457;-71
2022/11/23 01:47:06;;;;;;;;;;;;;;;11.69;100.00;98525.00;5086240;28;19923;-70
2022/11/23 01:49:43;;;;;;;;;;;;;;;11.49;100.00;98531.03;5086592;28;20114;-70
2022/11/23 01:52:10;;;;;;;;;;;;;;;11.46;100.00;98527.97;5086993;28;19922;-71
2022/11/23 01:54:39;;;;;;;;;;;;;;;11.62;100.00;98516.19;5085892;28;19966;-70
2022/11/23 01:57:07;;;;;;;;;;;;;;;11.76;100.00;98513.41;5085241;28;19912;-70
2022/11/23 01:59:32;;;;;;;;;;;;;;;11.91;100.00;98538.97;5084743;28;19916;-70
2022/11/23 02:01:59;;;;;;;;;;;;;;;12.11;100.00;98529.22;5086379;28;19983;-71
2022/11/23 02:04:28;;;;;;;;;;;;;;;12.01;100.00;98528.78;5087705;28;20133;-71
2022/11/23 02:06:54;;;;;;;;;;;;;;;12.20;100.00;98562.50;5084595;28;19965;-71
2022/11/23 02:09:21;;;;;;;;;;;;;;;12.22;100.00;98581.72;5089821;28;19916;-71
2022/11/23 02:11:46;;;;;;;;;;;;;;;12.55;100.00;98576.47;5087385;28;20097;-71
2022/11/23 02:14:11;;;;;;;;;;;;;;;12.49;100.00;98553.41;5084529;28;19923;-71
2022/11/23 02:16:37;;;;;;;;;;;;;;;12.58;100.00;98565.44;5084440;28;19983;-70
2022/11/23 02:19:04;;;;;;;;;;;;;;;12.64;100.00;98555.84;5083962;28;19919;-71
2022/11/23 02:21:29;;;;;;;;;;;;;;;12.61;99.34;98549.13;5084131;28;19927;-70
2022/11/23 02:24:02;;;;;;;;;;;;;;;12.86;97.17;98548.50;5084362;28;19916;-71
2022/11/23 02:26:29;;;;;;;;;;;;;;;13.01;95.98;98533.97;5084390;28;19912;-70
2022/11/23 02:29:10;;;;;;;;;;;;;;;13.04;95.04;98548.69;5085870;28;19923;-70
2022/11/23 02:31:36;;;;;;;;;;;;;;;13.10;95.43;98559.28;5068848;28;19912;-71
2022/11/23 02:34:01;;;;;;;;;;;;;;;13.03;96.09;98550.50;5086835;28;19917;-70
2022/11/23 02:36:33;;;;;;;;;;;;;;;13.02;96.58;98548.06;5087000;28;19946;-70
2022/11/23 02:38:59;;;;;;;;;;;;;;;13.20;95.60;98547.44;5046299;28;19953;-71
2022/11/23 02:41:25;;;;;;;;;;;;;;;13.34;95.06;98546.38;5043498;28;19913;-71
2022/11/23 02:43:52;;;;;;;;;;;;;;;13.43;94.03;98537.97;5069072;28;20105;-70
2022/11/23 02:46:17;;;;;;;;;;;;;;;13.53;93.69;98534.91;5043413;28;19916;-71
2022/11/23 02:48:43;;;;;;;;;;;;;;;13.42;94.46;98535.53;5069630;28;19956;-71
2022/11/23 02:51:08;;;;;;;;;;;;;;;12.90;96.30;98528.47;5042317;28;19980;-71
2022/11/23 02:53:33;;;;;;;;;;;;;;;12.88;97.73;98520.69;5044130;28;20198;-70
2022/11/23 02:55:58;;;;;;;;;;;;;;;12.84;97.81;98523.97;5043905;28;20011;-70
2022/11/23 02:58:24;;;;;;;;;;;;;;;12.75;99.37;98521.53;5043814;28;19932;-70
2022/11/23 03:00:49;;;;;;;;;;;;;;;12.68;99.59;98531.34;5042798;28;19917;-71
2022/11/23 03:03:14;;;;;;;;;;;;;;;12.77;98.73;98531.94;5044708;28;19916;-71
2022/11/23 03:05:39;;;;;;;;;;;;;;;12.96;97.82;98527.63;5049393;28;19927;-70
2022/11/23 03:08:05;;;;;;;;;;;;;;;12.82;98.16;98523.38;5043573;28;20071;-70
2022/11/23 03:10:30;;;;;;;;;;;;;;;12.47;99.33;98521.72;5047332;28;20082;-70
2022/11/23 03:12:56;;;;;;;;;;;;;;;12.45;100.00;98528.25;5046310;28;19940;-71
2022/11/23 03:15:21;;;;;;;;;;;;;;;12.35;100.00;98535.78;5044880;28;20238;-71
2022/11/23 03:17:47;;;;;;;;;;;;;;;12.36;100.00;98526.81;5045749;28;19931;-70
2022/11/23 03:20:12;;;;;;;;;;;;;;;12.46;100.00;98530.69;5043321;28;21188;-71
2022/11/23 03:22:38;;;;;;;;;;;;;;;12.62;100.00;98537.47;5043261;28;20207;-70
2022/11/23 03:25:04;;;;;;;;;;;;;;;12.65;100.00;98541.56;5045096;28;19913;-70
2022/11/23 03:27:32;;;;;;;;;;;;;;;12.90;100.00;98517.84;5044044;28;19940;-70
2022/11/23 03:29:57;;;;;;;;;;;;;;;13.08;97.64;98507.38;5045463;28;20020;-70
2022/11/23 03:32:22;;;;;;;;;;;;;;;12.87;97.74;98492.50;5043937;28;19917;-70
2022/11/23 03:34:48;;;;;;;;;;;;;;;12.63;99.36;98501.09;5045846;28;20245;-70
2022/11/23 03:37:13;;;;;;;;;;;;;;;12.64;99.21;98508.06;5058932;28;19924;-71
2022/11/23 03:39:38;;;;;;;;;;;;;;;12.59;99.86;98510.50;5084413;28;19997;-70
2022/11/23 03:42:04;;;;;;;;;;;;;;;12.76;98.63;98501.09;5088106;28;19912;-70
2022/11/23 03:44:29;;;;;;;;;;;;;;;12.59;99.49;98489.25;5085476;28;19923;-71
2022/11/23 03:46:54;;;;;;;;;;;;;;;12.52;100.00;98493.75;5086079;28;19970;-70
2022/11/23 03:49:19;;;;;;;;;;;;;;;12.47;100.00;98494.34;5085864;28;20221;-71
2022/11/23 03:51:45;;;;;;;;;;;;;;;12.57;100.00;98510.72;5088184;28;19928;-70
2022/11/23 03:54:10;;;;;;;;;;;;;;;12.79;100.00;98503.34;5086051;28;19930;-71
2022/11/23 03:56:35;;;;;;;;;;;;;;;12.94;100.00;98514.56;5087956;28;20198;-70
2022/11/23 03:59:00;;;;;;;;;;;;;;;12.97;100.00;98524.78;5084720;28;19923;-70
2022/11/23 04:01:26;;;;;;;;;;;;;;;12.74;98.67;98533.19;5084645;28;20212;-70
2022/11/23 04:03:51;;;;;;;;;;;;;;;12.62;98.40;98529.50;5081978;28;19917;-70
2022/11/23 04:06:16;;;;;;;;;;;;;;;12.58;97.02;98530.13;5082551;28;19912;-70
2022/11/23 04:08:42;;;;;;;;;;;;;;;12.45;97.42;98547.66;5081973;28;19920;-71
2022/11/23 04:11:07;;;;;;;;;;;;;;;12.40;96.92;98551.94;5083877;28;20237;-71
2022/11/23 04:13:32;;;;;;;;;;;;;;;12.52;95.70;98533.59;5088886;28;19921;-71
2022/11/23 04:15:57;;;;;;;;;;;;;;;12.40;96.04;98536.00;5087604;28;19958;-70
2022/11/23 04:18:23;;;;;;;;;;;;;;;12.13;96.55;98529.84;5087649;28;19924;-70
2022/11/23 04:20:48;;;;;;;;;;;;;;;11.89;97.26;98528.56;5089431;28;20209;-70
2022/11/23 04:23:13;;;;;;;;;;;;;;;12.08;96.83;98533.09;5089911;28;19932;-70
2022/11/23 04:25:38;;;;;;;;;;;;;;;12.08;97.34;98538.41;5087384;28;19920;-70
2022/11/23 04:28:04;;;;;;;;;;;;;;;12.24;96.37;98528.44;5085879;28;19927;-70
2022/11/23 04:30:29;;;;;;;;;;;;;;;12.13;95.45;98512.09;5094865;28;19926;-71
2022/11/23 04:32:54;;;;;;;;;;;;;;;11.92;96.14;98514.91;5085303;28;19954;-71
2022/11/23 04:35:21;;;;;;;;;;;;;;;12.24;95.75;98500.06;5087655;28;20197;-70
2022/11/23 04:37:46;;;;;;;;;;;;;;;12.19;95.00;98502.50;5087638;28;20299;-71
2022/11/23 04:40:12;;;;;;;;;;;;;;;12.06;95.38;98516.56;5088078;28;19912;-71
2022/11/23 04:42:37;;;;;;;;;;;;;;;12.21;95.41;98520.88;5088175;28;19931;-71
2022/11/23 04:45:02;;;;;;;;;;;;;;;11.99;94.97;98529.00;5080963;28;19924;-71
2022/11/23 04:47:28;;;;;;;;;;;;;;;11.98;94.40;98534.50;5087476;28;19916;-70
2022/11/23 04:49:53;;;;;;;;;;;;;;;11.80;95.06;98527.09;5087260;28;19979;-70
2022/11/23 04:52:18;;;;;;;;;;;;;;;11.92;94.12;98530.00;5090010;28;19923;-70
2022/11/23 04:54:43;;;;;;;;;;;;;;;11.78;94.71;98532.59;5085654;28;20198;-71
2022/11/23 04:57:09;;;;;;;;;;;;;;;11.90;95.32;98535.50;5086256;28;20299;-71
2022/11/23 04:59:34;;;;;;;;;;;;;;;11.92;95.12;98543.25;5087344;28;19923;-71
2022/11/23 05:01:59;;;;;;;;;;;;;;;11.71;95.28;98538.88;5088403;28;19928;-70
2022/11/23 05:04:25;;;;;;;;;;;;;;;11.72;96.16;98548.47;5083980;28;19977;-71
2022/11/23 05:06:50;;;;;;;;;;;;;;;11.76;95.96;98533.78;5084259;28;19912;-71
2022/11/23 05:09:15;;;;;;;;;;;;;;;11.69;96.38;98531.13;5095623;28;19916;-70
2022/11/23 05:11:40;;;;;;;;;;;;;;;11.68;96.60;98533.97;5083949;28;20107;-71
2022/11/23 05:14:06;;;;;;;;;;;;;;;11.82;95.68;98520.59;5089762;28;19947;-70
2022/11/23 05:16:31;;;;;;;;;;;;;;;11.92;94.96;98525.50;5086726;28;20185;-70
2022/11/23 05:18:56;;;;;;;;;;;;;;;11.66;95.78;98520.91;5086551;28;19916;-70
2022/11/23 05:21:22;;;;;;;;;;;;;;;11.83;95.33;98526.72;5088113;28;20113;-70
2022/11/23 05:23:47;;;;;;;;;;;;;;;11.70;94.87;98524.81;5094921;28;19943;-71
2022/11/23 05:26:12;;;;;;;;;;;;;;;11.66;95.37;98528.03;5085757;28;20722;-71
2022/11/23 05:28:39;;;;;;;;;;;;;;;11.89;95.18;98519.78;5088929;28;19919;-70
2022/11/23 05:31:04;;;;;;;;;;;;;;;11.74;95.15;98519.91;5086680;28;19957;-70
2022/11/23 05:33:29;;;;;;;;;;;;;;;11.68;94.93;98531.31;5085711;28;19916;-70
2022/11/23 05:35:55;;;;;;;;;;;;;;;11.71;95.40;98534.38;5087153;28;19943;-70
2022/11/23 05:38:20;;;;;;;;;;;;;;;12.03;93.68;98546.16;5087062;28;19924;-70
2022/11/23 05:40:45;;;;;;;;;;;;;;;11.55;95.47;98545.34;5087104;28;20354;-70
2022/11/23 05:43:11;;;;;;;;;;;;;;;11.59;96.40;98553.72;5072299;28;19931;-71
2022/11/23 05:45:36;;;;;;;;;;;;;;;11.72;95.55;98553.78;5085607;28;19927;-70
2022/11/23 05:48:01;;;;;;;;;;;;;;;11.97;94.30;98536.34;5086325;28;19916;-71
2022/11/23 05:50:27;;;;;;;;;;;;;;;12.11;93.89;98527.38;5083474;28;20293;-70
2022/11/23 05:52:54;;;;;;;;;;;;;;;12.01;94.36;98526.13;5085221;28;19926;-70
2022/11/23 05:55:19;;;;;;;;;;;;;;;11.77;94.38;98530.97;5088866;28;19931;-70
2022/11/23 05:57:45;;;;;;;;;;;;;;;11.66;96.27;98549.25;5082872;28;19928;-70
2022/11/23 06:00:10;;;;;;;;;;;;;;;11.67;96.58;98553.53;5084315;28;19957;-70
2022/11/23 06:02:36;;;;;;;;;;;;;;;11.78;94.92;98547.69;5083220;28;19939;-70
2022/11/23 06:05:01;;;;;;;;;;;;;;;11.79;95.48;98552.00;5084639;28;19912;-70
2022/11/23 06:07:27;;;;;;;;;;;;;;;11.86;95.66;98538.75;5086082;28;19928;-70
2022/11/23 06:09:52;;;;;;;;;;;;;;;12.08;94.13;98530.44;5087605;28;19942;-70
2022/11/23 06:12:17;;;;;;;;;;;;;;;11.95;94.59;98519.81;5085615;28;19935;-70
2022/11/23 06:14:43;;;;;;;;;;;;;;;11.95;94.92;98513.69;5084876;28;20198;-70
2022/11/23 06:17:08;;;;;;;;;;;;;;;12.15;94.29;98515.34;5087884;28;20099;-71
2022/11/23 06:19:33;;;;;;;;;;;;;;;12.19;94.54;98517.59;5085760;28;19923;-71
2022/11/23 06:21:59;;;;;;;;;;;;;;;12.32;93.39;98530.88;5086842;28;19957;-71
2022/11/23 06:24:24;;;;;;;;;;;;;;;12.36;93.65;98529.47;5087439;28;19930;-71
2022/11/23 06:26:50;;;;;;;;;;;;;;;12.36;93.39;98530.28;5085263;28;19911;-70
2022/11/23 06:29:16;;;;;;;;;;;;;;;12.62;92.58;98529.50;5083658;28;19920;-71
2022/11/23 06:31:41;;;;;;;;;;;;;;;12.65;92.46;98533.59;5073809;28;20225;-70
2022/11/23 06:34:07;;;;;;;;;;;;;;;12.62;92.42;98537.47;5086592;28;19916;-71
2022/11/23 06:36:32;;;;;;;;;;;;;;;12.62;92.49;98549.94;5084750;28;19912;-71
2022/11/23 06:38:57;;;;;;;;;;;;;;;12.69;92.54;98554.22;5076516;28;19916;-71
2022/11/23 06:41:23;;;;;;;;;;;;;;;12.86;91.62;98543.19;5087276;28;20181;-71
2022/11/23 06:43:48;;;;;;;;;;;;;;;12.97;91.03;98548.69;5085754;28;20145;-71
2022/11/23 06:46:15;;;;;;;;;;;;;;;12.88;91.00;98563.19;5085859;28;19934;-70
2022/11/23 06:48:42;;;;;;;;;;;;;;;12.71;91.52;98580.56;5085244;28;19928;-71
2022/11/23 06:51:07;;;;;;;;;;;;;;;12.51;92.51;98577.91;5084020;28;19927;-71
2022/11/23 06:53:32;;;;;;;;;;;;;;;12.53;93.17;98570.56;5088581;28;19924;-71
2022/11/23 06:55:58;;;;;;;;;;;;;;;12.56;93.14;98570.16;5082647;28;19912;-71
2022/11/23 06:58:23;;;;;;;;;;;;;;;12.58;92.95;98559.31;5082458;28;19916;-71
2022/11/23 07:00:49;;;;;;;;;;;;;;;12.55;93.34;98576.47;5088362;28;19919;-72
2022/11/23 07:03:21;;;;;;;;;;;;;;;12.54;93.50;98569.53;5086647;28;19916;-71
2022/11/23 07:05:46;;;;;;;;;;;;;;;12.63;93.07;98562.19;5083992;28;19950;-71
2022/11/23 07:08:12;;;;;;;;;;;;;;;12.70;93.23;98563.81;5086337;28;19944;-71
2022/11/23 07:10:37;;;;;;;;;;;;;;;12.91;92.79;98567.28;5083231;28;19912;-70
2022/11/23 07:13:06;;;;;;;;;;;;;;;13.04;92.20;98568.09;5085405;28;20174;-71
2022/11/23 07:15:32;;;;;;;;;;;;;;;13.12;92.05;98564.41;5083882;28;19912;-71
2022/11/23 07:17:57;;;;;;;;;;;;;;;13.18;91.83;98568.91;5082905;28;20110;-71
2022/11/23 07:20:23;;;;;;;;;;;;;;;13.16;91.35;98562.97;5088613;28;19934;-71
2022/11/23 07:22:57;;;;;;;;;;;;;;;13.07;91.97;98559.72;5095370;28;19922;-71
2022/11/23 07:25:22;;;;;;;;;;;;;;;13.22;91.34;98569.31;5083441;28;19949;-71
2022/11/23 07:27:53;;;;;;;;;;;;;;;13.24;91.40;98570.75;5083500;28;19943;-71
2022/11/23 07:30:18;;;;;;;;;;;;;;;13.07;92.48;98578.31;5090767;28;19950;-70
2022/11/23 07:32:43;;;;;;;;;;;;;;;13.14;92.68;98570.31;5085035;28;20195;-70
2022/11/23 07:35:09;;;;;;;;;;;;;;;13.31;91.70;98574.22;5091693;28;19912;-71
2022/11/23 07:37:34;;;;;;;;;;;;;;;13.28;92.34;98584.44;5093056;28;19923;-70
2022/11/23 07:39:59;;;;;;;;;;;;;;;13.25;93.03;98604.28;5094373;28;19919;-70
2022/11/23 07:42:24;;;;;;;;;;;;;;;13.19;93.05;98607.75;5084094;28;20261;-71
2022/11/23 07:44:50;;;;;;;;;;;;;;;13.04;93.07;98599.16;5082203;28;19927;-71
2022/11/23 07:47:15;;;;;;;;;;;;;;;13.04;94.07;98607.13;5089989;28;19916;-71
2022/11/23 07:49:40;;;;;;;;;;;;;;;13.03;93.68;98602.84;5087667;28;19912;-71
2022/11/23 07:52:06;;;;;;;;;;;;;;;13.02;93.72;98604.69;5095089;28;19923;-70
2022/11/23 07:54:31;;;;;;;;;;;;;;;13.04;94.27;98607.94;5087703;28;19916;-71
2022/11/23 07:56:56;;;;;;;;;;;;;;;13.24;93.76;98607.97;5097769;28;20090;-70
2022/11/23 07:59:21;;;;;;;;;;;;;;;13.30;93.73;98609.78;5090945;28;19923;-71
2022/11/23 08:01:47;;;;;;;;;;;;;;;13.51;92.76;98614.03;5088713;28;19913;-70
2022/11/23 08:04:12;;;;;;;;;;;;;;;13.57;92.68;98609.78;5087018;28;19950;-70
2022/11/23 08:06:37;;;;;;;;;;;;;;;13.71;91.87;98603.38;5089616;28;19912;-71
2022/11/23 08:09:02;;;;;;;;;;;;;;;13.72;91.91;98603.19;5087413;28;19959;-71
2022/11/23 08:11:28;;;;;;;;;;;;;;;13.73;91.99;98615.44;5091361;28;19959;-69
2022/11/23 08:13:53;;;;;;;;;;;;;;;13.63;92.42;98609.75;5087860;28;19954;-71
2022/11/23 08:16:19;;;;;;;;;;;;;;;13.39;93.38;98603.22;5087412;28;19919;-72
2022/11/23 08:18:44;;;;;;;;;;;;;;;13.24;94.40;98607.97;5085537;28;19924;-71
2022/11/23 08:21:09;;;;;;;;;;;;;;;13.29;94.65;98613.47;5086946;28;19973;-71
2022/11/23 08:23:34;;;;;;;;;;;;;;;13.28;95.40;98606.53;5093811;28;19917;-71
2022/11/23 08:26:01;;;;;;;;;;;;;;;13.57;93.85;98607.09;5088807;28;20229;-70
2022/11/23 08:28:26;;;;;;;;;;;;;;;13.40;94.90;98601.41;5086096;28;20091;-70
2022/11/23 08:30:52;;;;;;;;;;;;;;;13.33;95.87;98595.28;5091246;28;19999;-71
2022/11/23 08:33:17;;;;;;;;;;;;;;;13.37;95.74;98609.78;5087547;28;19916;-70
2022/11/23 08:35:42;;;;;;;;;;;;;;;13.42;96.03;98613.47;5092033;28;20079;-71
2022/11/23 08:38:08;;;;;;;;;;;;;;;13.18;97.24;98622.06;5096238;28;20075;-71
2022/11/23 08:40:34;;;;;;;;;;;;;;;13.30;97.12;98609.78;5086299;28;20181;-70
2022/11/23 08:43:00;;;;;;;;;;;;;;;13.36;96.89;98608.16;5087157;28;19923;-70
2022/11/23 08:45:25;;;;;;;;;;;;;;;13.44;96.83;98597.28;5096405;28;19919;-70
2022/11/23 08:47:51;;;;;;;;;;;;;;;13.51;96.32;98587.47;5074024;28;19917;-71
2022/11/23 08:50:17;;;;;;;;;;;;;;;13.57;96.49;98597.28;5084742;28;19913;-70
2022/11/23 08:52:42;;;;;;;;;;;;;;;13.54;96.59;98595.03;5087473;28;19987;-71
2022/11/23 08:55:08;;;;;;;;;;;;;;;13.48;96.88;98589.72;5085094;28;19924;-70
2022/11/23 08:57:33;;;;;;;;;;;;;;;13.65;96.65;98590.91;5091649;28;20135;-71
2022/11/23 08:59:59;;;;;;;;;;;;;;;13.66;96.77;98596.03;5087157;28;19912;-71
2022/11/23 09:02:24;;;;;;;;;;;;;;;13.62;97.33;98594.00;5095507;28;19920;-69
2022/11/23 09:04:49;;;;;;;;;;;;;;;13.55;97.24;98590.53;5089637;28;20490;-70
2022/11/23 09:07:14;;;;;;;;;;;;;;;13.40;98.39;98590.75;5097927;28;19935;-71
2022/11/23 09:09:40;;;;;;;;;;;;;;;13.53;98.18;98592.59;5091085;28;20173;-70
2022/11/23 09:12:05;;;;;;;;;;;;;;;13.66;97.56;98597.88;5085666;28;19947;-70
2022/11/23 09:14:30;;;;;;;;;;;;;;;13.73;96.25;98588.03;5084237;28;20245;-70
2022/11/23 09:16:56;;;;;;;;;;;;;;;13.84;95.82;98578.56;5087511;28;19912;-69
2022/11/23 09:19:21;;;;;;;;;;;;;;;13.65;96.97;98578.44;5086844;28;19994;-72
2022/11/23 09:21:46;;;;;;;;;;;;;;;13.50;98.28;98571.72;5084750;28;19923;-70
2022/11/23 09:24:12;;;;;;;;;;;;;;;13.75;97.91;98575.34;5083372;28;20234;-67
2022/11/23 09:26:37;;;;;;;;;;;;;;;13.69;97.41;98568.19;5086207;28;19911;-67
2022/11/23 09:29:03;;;;;;;;;;;;;;;13.77;97.27;98564.47;5086750;28;19987;-68
2022/11/23 09:31:28;;;;;;;;;;;;;;;13.98;96.72;98574.81;5084924;28;19935;-69
2022/11/23 09:33:54;;;;;;;;;;;;;;;13.96;95.66;98567.06;5086839;28;19915;-67
2022/11/23 09:36:21;;;;;;;;;;;;;;;14.14;95.27;98563.69;5083901;28;20079;-67
2022/11/23 09:38:46;;;;;;;;;;;;;;;14.25;94.71;98559.53;5084930;28;20167;-69
2022/11/23 09:41:24;;;;;;;;;;;;;;;14.50;93.61;98548.94;5087280;28;19916;-68
2022/11/23 09:43:55;;;;;;;;;;;;;;;14.34;93.31;98534.28;5085849;28;19947;-69
2022/11/23 09:46:30;;;;;;;;;;;;;;;14.60;92.74;98530.66;5086531;28;19983;-68
2022/11/23 09:48:55;;;;;;;;;;;;;;;14.57;92.77;98533.75;5084332;28;19932;-67
2022/11/23 09:51:22;;;;;;;;;;;;;;;14.59;92.31;98527.19;5089583;28;19984;-68
2022/11/23 09:53:47;;;;;;;;;;;;;;;15.00;91.39;98513.28;5085811;28;19916;-67
2022/11/23 09:56:16;;;;;;;;;;;;;;;14.79;92.33;98516.34;5086169;28;20201;-69
2022/11/23 09:58:41;;;;;;;;;;;;;;;14.99;91.49;98524.97;5089850;28;20000;-67
2022/11/23 10:01:10;;;;;;;;;;;;;;;14.94;91.60;98529.31;5086262;28;19935;-69
2022/11/23 10:03:37;;;;;;;;;;;;;;;15.08;91.39;98527.34;5086175;28;19923;-69
2022/11/23 10:06:12;;;;;;;;;;;;;;;15.25;90.82;98529.22;5089399;28;19920;-68
2022/11/23 10:08:56;;;;;;;;;;;;;;;15.07;90.34;98515.06;5088375;28;19923;-67
2022/11/23 10:11:21;;;;;;;;;;;;;;;14.96;91.39;98519.25;5087419;28;20370;-69
2022/11/23 10:13:55;;;;;;;;;;;;;;;15.02;91.60;98513.06;5086583;28;19966;-71
2022/11/23 10:16:20;;;;;;;;;;;;;;;15.20;91.00;98510.41;5086251;28;19943;-72
2022/11/23 10:19:08;;;;;;;;;;;;;;;15.42;89.16;98502.78;5089939;28;19915;-70
2022/11/23 10:21:46;;;;;;;;;;;;;;;15.55;88.33;98505.28;5084592;28;19919;-69
2022/11/23 10:24:14;;;;;;;;;;;;;;;15.62;88.29;98510.59;5087132;28;19977;-69
2022/11/23 10:26:41;;;;;;;;;;;;;;;15.75;87.65;98501.59;5087698;28;19912;-68
2022/11/23 10:29:25;;;;;;;;;;;;;;;15.66;87.25;98501.09;5086313;28;19924;-69
2022/11/23 10:31:51;;;;;;;;;;;;;;;15.79;88.09;98497.44;5088538;28;19927;-69
2022/11/23 10:34:20;;;;;;;;;;;;;;;15.90;87.40;98494.81;5086324;28;19916;-71
2022/11/23 10:36:45;;;;;;;;;;;;;;;16.05;85.41;98496.25;5086308;28;19975;-67
2022/11/23 10:39:20;;;;;;;;;;;;;;;15.96;86.82;98499.25;5084212;28;19923;-71
2022/11/23 10:41:45;;;;;;;;;;;;;;;15.95;85.70;98499.47;5086772;28;20096;-70
2022/11/23 10:44:16;;;;;;;;;;;;;;;15.91;85.97;98508.97;5084390;28;19916;-70
2022/11/23 10:46:42;;;;;;;;;;;;;;;15.72;85.93;98507.38;5068270;28;19920;-71
2022/11/23 10:49:18;;;;;;;;;;;;;;;15.70;86.69;98506.81;5089154;28;19920;-71
2022/11/23 10:51:51;;;;;;;;;;;;;;;15.55;88.41;98505.28;5088096;28;19919;-70
2022/11/23 10:54:36;;;;;;;;;;;;;;;15.86;87.63;98504.31;5086314;28;19987;-71
2022/11/23 10:57:18;;;;;;;;;;;;;;;15.76;86.46;98497.91;5054769;28;19913;-70
2022/11/23 10:59:55;;;;;;;;;;;;;;;15.75;87.54;98499.75;5085212;28;19954;-71
2022/11/23 11:02:20;;;;;;;;;;;;;;;15.70;87.24;98498.78;5083547;28;19924;-69
2022/11/23 11:04:47;;;;;;;;;;;;;;;15.59;87.45;98495.00;5085553;28;19912;-69
2022/11/23 11:07:27;;;;;;;;;;;;;;;15.65;88.12;98494.13;5088914;28;19912;-71
2022/11/23 11:09:56;;;;;;;;;;;;;;;15.42;88.46;98489.44;5084216;28;20110;-69
2022/11/23 11:12:22;;;;;;;;;;;;;;;15.06;91.34;98494.75;5085508;28;19917;-69
2022/11/23 11:15:06;;;;;;;;;;;;;;;14.90;93.15;98494.31;5085842;28;19959;-69
2022/11/23 11:17:33;;;;;;;;;;;;;;;14.85;91.96;98498.66;5084823;28;20203;-71
2022/11/23 11:20:00;;;;;;;;;;;;;;;14.97;92.04;98496.91;5085985;28;19919;-70
2022/11/23 11:22:28;;;;;;;;;;;;;;;15.21;90.77;98490.69;5085873;28;19916;-70
2022/11/23 11:24:54;;;;;;;;;;;;;;;15.39;90.20;98487.22;5084904;28;19979;-71
2022/11/23 11:27:21;;;;;;;;;;;;;;;15.52;89.52;98487.06;5093175;28;19916;-69
2022/11/23 11:29:47;;;;;;;;;;;;;;;15.78;88.41;98491.28;5082744;28;20118;-70
2022/11/23 11:32:17;;;;;;;;;;;;;;;15.88;88.49;98494.22;5086641;28;20060;-70
2022/11/23 11:34:45;;;;;;;;;;;;;;;15.73;88.92;98491.16;5085225;28;19924;-71
2022/11/23 11:37:16;;;;;;;;;;;;;;;16.05;86.88;98475.72;5082335;28;19943;-69
2022/11/23 11:40:01;;;;;;;;;;;;;;;16.23;85.85;98480.16;5085410;28;20046;-70
2022/11/23 11:42:33;;;;;;;;;;;;;;;16.20;84.69;98481.44;5083916;28;19983;-70
2022/11/23 11:45:00;;;;;;;;;;;;;;;15.83;87.76;98477.28;5084622;28;19912;-70
2022/11/23 11:47:44;;;;;;;;;;;;;;;16.03;87.70;98483.13;5078838;28;19992;-71
2022/11/23 11:50:30;;;;;;;;;;;;;;;16.00;86.96;98480.09;5083579;28;19913;-69
2022/11/23 11:52:58;;;;;;;;;;;;;;;16.10;86.39;98481.19;5085993;28;20109;-71
2022/11/23 11:55:28;;;;;;;;;;;;;;;15.94;86.83;98479.97;5085181;28;19912;-71
2022/11/23 11:58:14;;;;;;;;;;;;;;;16.21;85.58;98487.59;5086500;28;19970;-70
2022/11/23 12:00:40;;;;;;;;;;;;;;;16.34;84.36;98484.72;5085132;28;19916;-71
2022/11/23 12:03:11;;;;;;;;;;;;;;;16.03;86.27;98499.16;5084190;28;20102;-70
2022/11/23 12:05:53;;;;;;;;;;;;;;;15.75;86.71;98505.09;5086700;28;20006;-71
2022/11/23 12:08:43;;;;;;;;;;;;;;;15.73;88.21;98511.69;5085207;28;19943;-71
2022/11/23 12:11:10;;;;;;;;;;;;;;;15.73;88.01;98515.16;5069319;28;20098;-71
2022/11/23 12:13:37;;;;;;;;;;;;;;;15.61;88.41;98509.78;5084732;28;19921;-69
2022/11/23 12:16:21;;;;;;;;;;;;;;;15.52;89.44;98497.72;5086302;28;19947;-71
2022/11/23 12:18:52;;;;;;;;;;;;;;;15.54;88.06;98486.81;5088301;28;19916;-71
2022/11/23 12:21:36;;;;;;;;;;;;;;;15.45;87.98;98486.31;5083763;28;19931;-71
2022/11/23 12:24:17;;;;;;;;;;;;;;;15.52;86.93;98481.72;5076220;28;20145;-70
2022/11/23 12:26:45;;;;;;;;;;;;;;;15.76;85.59;98477.34;5087199;28;20094;-70
2022/11/23 12:29:32;;;;;;;;;;;;;;;15.76;84.95;98482.69;5083362;28;20260;-69
2022/11/23 12:32:15;;;;;;;;;;;;;;;15.80;85.98;98486.53;5086037;28;19912;-71
2022/11/23 12:34:48;;;;;;;;;;;;;;;15.79;86.50;98492.91;5089183;28;19925;-69
2022/11/23 12:37:22;;;;;;;;;;;;;;;15.87;85.69;98500.63;5085918;28;20221;-69
2022/11/23 12:39:48;;;;;;;;;;;;;;;15.96;85.56;98507.25;5089006;28;20142;-69
2022/11/23 12:42:25;;;;;;;;;;;;;;;15.98;85.34;98504.38;5087535;28;19920;-70
2022/11/23 12:45:03;;;;;;;;;;;;;;;15.98;85.25;98498.22;5088058;28;19924;-71